Time;durP1;ratioP1;P1;durP2;ratioP2;P2;SDS_P1;SDS_P2;PMS_P1;PMS_P2;Temp;Humidity;BMP_temperature;BMP_pressure;BME280_temperature;BME280_humidity;BME280_pressure;Samples;Min_cycle;Max_cycle;Signal;HPM_P1;HPM_P2
2022/11/12 00:01:37;;;;;;;4.70;3.50;;;4.50;99.90;;;;;;5095434;28;20201;-82
2022/11/12 00:04:08;;;;;;;7.23;4.63;;;4.60;99.90;;;;;;5096636;28;20209;-82
2022/11/12 00:06:35;;;;;;;7.17;4.93;;;4.90;99.90;;;;;;5088586;28;20213;-82
2022/11/12 00:09:01;;;;;;;8.57;4.90;;;5.20;99.90;;;;;;5088931;28;20229;-82
2022/11/12 00:11:28;;;;;;;9.20;5.63;;;5.20;99.90;;;;;;5085618;28;20201;-82
2022/11/12 00:13:55;;;;;;;6.47;5.10;;;5.30;99.90;;;;;;5092523;28;20202;-82
2022/11/12 00:16:22;;;;;;;9.13;4.93;;;5.30;99.90;;;;;;5100851;28;20206;-82
2022/11/12 00:18:48;;;;;;;8.87;4.10;;;5.20;99.90;;;;;;5101428;28;20201;-82
2022/11/12 00:21:17;;;;;;;8.60;4.70;;;5.30;99.90;;;;;;5098051;28;20199;-82
2022/11/12 00:23:43;;;;;;;5.67;4.33;;;5.30;99.90;;;;;;5107583;28;20190;-81
2022/11/12 00:26:10;;;;;;;5.77;3.90;;;5.20;99.90;;;;;;5104559;28;20656;-81
2022/11/12 00:28:37;;;;;;;6.87;4.20;;;4.80;99.90;;;;;;5101011;28;20226;-82
2022/11/12 00:31:11;;;;;;;5.90;4.27;;;4.80;99.90;;;;;;5101763;28;20197;-81
2022/11/12 00:33:41;;;;;;;8.10;4.90;;;4.80;99.90;;;;;;5092336;28;20197;-81
2022/11/12 00:36:09;;;;;;;7.67;4.30;;;4.80;99.90;;;;;;5107540;28;20239;-81
2022/11/12 00:38:37;;;;;;;6.37;4.33;;;5.00;99.90;;;;;;5110120;28;20221;-81
2022/11/12 00:41:04;;;;;;;7.63;4.83;;;5.30;99.90;;;;;;5088008;28;20212;-81
2022/11/12 00:43:31;;;;;;;6.47;4.00;;;5.10;99.90;;;;;;5087182;28;20537;-81
2022/11/12 00:45:58;;;;;;;6.03;4.23;;;5.20;99.90;;;;;;5097588;28;20215;-81
2022/11/12 00:48:25;;;;;;;6.30;4.60;;;5.10;99.90;;;;;;5106117;28;20601;-81
2022/11/12 00:50:51;;;;;;;7.10;4.67;;;4.40;99.90;;;;;;5108899;28;20201;-81
2022/11/12 00:53:18;;;;;;;9.13;4.60;;;4.70;99.90;;;;;;5101865;28;20590;-82
2022/11/12 00:55:46;;;;;;;7.10;4.87;;;5.00;99.90;;;;;;5099904;28;20204;-82
2022/11/12 00:58:13;;;;;;;6.53;4.70;;;5.10;99.90;;;;;;5093552;28;20690;-82
2022/11/12 01:00:40;;;;;;;6.30;4.03;;;5.20;99.90;;;;;;5088905;28;20210;-81
2022/11/12 01:03:07;;;;;;;5.70;4.20;;;5.20;99.90;;;;;;5108647;28;20201;-82
2022/11/12 01:05:34;;;;;;;5.77;4.33;;;5.20;99.90;;;;;;5093838;28;20569;-82
2022/11/12 01:08:00;;;;;;;5.83;4.07;;;5.20;99.90;;;;;;5102231;28;20209;-82
2022/11/12 01:10:27;;;;;;;5.63;4.27;;;4.60;99.90;;;;;;5085236;28;20207;-82
2022/11/12 01:12:56;;;;;;;9.03;4.90;;;4.40;99.90;;;;;;5092169;28;20197;-82
2022/11/12 01:15:22;;;;;;;5.90;4.50;;;4.50;99.90;;;;;;5080741;28;20203;-82
2022/11/12 01:17:49;;;;;;;7.60;4.93;;;4.80;99.90;;;;;;5095640;28;20214;-82
2022/11/12 01:20:16;;;;;;;8.57;4.80;;;4.90;99.90;;;;;;5103934;28;20208;-82
2022/11/12 01:22:43;;;;;;;7.00;4.60;;;5.10;99.90;;;;;;5091777;28;20205;-81
2022/11/12 01:25:10;;;;;;;9.77;4.63;;;4.90;99.90;;;;;;5086520;28;20228;-82
2022/11/12 01:27:38;;;;;;;7.77;4.10;;;4.90;99.90;;;;;;5100768;28;20244;-82
2022/11/12 01:30:07;;;;;;;6.60;4.67;;;5.00;99.90;;;;;;5099115;28;20701;-82
2022/11/12 01:32:37;;;;;;;7.67;5.03;;;4.90;99.90;;;;;;5101236;28;20201;-82
2022/11/12 01:35:04;;;;;;;8.77;5.40;;;5.00;99.90;;;;;;5100769;28;20209;-82
2022/11/12 01:37:31;;;;;;;8.90;5.50;;;5.10;99.90;;;;;;5106708;28;20309;-82
2022/11/12 01:39:58;;;;;;;8.90;5.10;;;5.10;99.90;;;;;;5108343;28;20185;-81
2022/11/12 01:42:28;;;;;;;7.83;4.33;;;5.10;99.90;;;;;;5101169;28;20201;-80
2022/11/12 01:44:55;;;;;;;5.53;4.40;;;5.10;99.90;;;;;;5100078;28;20209;-81
2022/11/12 01:47:26;;;;;;;7.23;4.70;;;4.40;99.90;;;;;;5102935;28;20224;-81
2022/11/12 01:49:58;;;;;;;7.53;4.73;;;4.40;99.90;;;;;;5108926;28;20226;-81
2022/11/12 01:52:29;;;;;;;6.53;4.43;;;4.30;99.90;;;;;;5104167;28;20228;-80
2022/11/12 01:54:59;;;;;;;6.13;4.50;;;4.30;99.90;;;;;;5105153;28;20201;-81
2022/11/12 01:57:31;;;;;;;12.23;7.77;;;4.40;99.90;;;;;;5101883;28;20213;-81
2022/11/12 02:00:03;;;;;;;9.60;5.27;;;4.70;99.90;;;;;;5084118;28;20601;-81
2022/11/12 02:02:32;;;;;;;7.23;5.10;;;4.90;99.90;;;;;;5094177;28;20227;-81
2022/11/12 02:04:59;;;;;;;6.70;4.60;;;4.90;99.90;;;;;;5105909;28;20194;-80
2022/11/12 02:07:26;;;;;;;5.80;4.17;;;5.10;99.90;;;;;;5088489;28;20222;-80
2022/11/12 02:09:53;;;;;;;6.47;4.70;;;5.10;99.90;;;;;;5102265;28;20224;-81
2022/11/12 02:15:02;;;;;;;7.33;4.53;;;5.00;99.90;;;;;;5098316;28;20716;-81
2022/11/12 02:17:30;;;;;;;8.37;4.53;;;4.60;99.90;;;;;;5088959;28;20221;-81
2022/11/12 02:19:58;;;;;;;6.27;4.77;;;4.10;99.90;;;;;;5098349;28;20663;-81
2022/11/12 02:22:27;;;;;;;7.80;4.83;;;3.90;99.90;;;;;;5096629;28;20230;-81
2022/11/12 02:24:54;;;;;;;7.57;4.27;;;4.00;99.90;;;;;;5109134;28;20193;-81
2022/11/12 02:27:21;;;;;;;5.70;4.50;;;4.20;99.90;;;;;;5103468;28;20257;-81
2022/11/12 02:29:48;;;;;;;7.37;4.63;;;4.10;99.90;;;;;;5101842;28;20669;-81
2022/11/12 02:32:15;;;;;;;6.70;4.67;;;4.20;99.90;;;;;;5093085;28;20204;-81
2022/11/12 02:34:41;;;;;;;6.63;4.23;;;4.20;99.90;;;;;;5105505;28;20199;-81
2022/11/12 02:37:09;;;;;;;8.03;4.50;;;4.30;99.90;;;;;;5110114;28;20726;-81
2022/11/12 02:39:37;;;;;;;6.10;4.47;;;4.30;99.90;;;;;;5111101;28;20562;-81
2022/11/12 02:42:04;;;;;;;7.43;4.27;;;4.40;99.90;;;;;;5102547;28;20572;-80
2022/11/12 02:44:31;;;;;;;40.07;28.50;;;4.30;99.90;;;;;;5096829;28;20204;-81
2022/11/12 02:46:58;;;;;;;14.50;8.60;;;4.30;99.90;;;;;;5109374;28;20217;-84
2022/11/12 02:49:24;;;;;;;8.03;5.23;;;4.30;99.90;;;;;;5104535;28;20589;-80
2022/11/12 02:51:51;;;;;;;5.27;3.97;;;4.00;99.90;;;;;;5095378;28;20201;-81
2022/11/12 02:54:18;;;;;;;5.37;4.37;;;3.80;99.90;;;;;;5100753;28;20208;-81
2022/11/12 02:56:46;;;;;;;7.27;4.60;;;3.90;99.90;;;;;;5106793;28;20232;-81
2022/11/12 02:59:13;;;;;;;6.70;4.67;;;4.10;99.90;;;;;;5098202;28;20193;-81
2022/11/12 03:01:40;;;;;;;5.90;4.10;;;4.10;99.90;;;;;;5105148;28;20203;-81
2022/11/12 03:04:06;;;;;;;4.93;4.23;;;4.20;99.90;;;;;;5092831;28;20207;-81
2022/11/12 03:06:33;;;;;;;5.37;4.20;;;4.20;99.90;;;;;;5099609;28;20228;-81
2022/11/12 03:09:00;;;;;;;6.67;3.90;;;4.50;99.90;;;;;;5084118;28;20220;-81
2022/11/12 03:11:27;;;;;;;7.00;3.93;;;4.30;99.90;;;;;;5080568;28;20201;-81
2022/11/12 03:13:55;;;;;;;4.83;3.70;;;4.20;99.90;;;;;;5096892;28;20215;-81
2022/11/12 03:16:22;;;;;;;6.93;3.90;;;4.10;99.90;;;;;;5104135;28;20202;-81
2022/11/12 03:18:48;;;;;;;5.80;3.80;;;4.10;99.90;;;;;;5089900;28;20569;-81
2022/11/12 03:21:15;;;;;;;5.20;3.60;;;4.10;99.90;;;;;;5107196;28;20577;-81
2022/11/12 03:23:42;;;;;;;6.83;3.90;;;4.10;99.90;;;;;;5096337;28;20791;-81
2022/11/12 03:26:09;;;;;;;4.67;3.67;;;4.10;99.90;;;;;;5106507;28;20586;-81
2022/11/12 03:28:35;;;;;;;8.23;4.03;;;4.30;99.90;;;;;;5095518;28;20218;-81
2022/11/12 03:31:04;;;;;;;6.70;3.90;;;4.30;99.90;;;;;;5098497;28;20198;-81
2022/11/12 03:33:30;;;;;;;5.43;3.90;;;4.20;99.90;;;;;;5090036;28;20204;-81
2022/11/12 03:35:57;;;;;;;7.00;4.47;;;3.70;99.90;;;;;;5103849;28;20186;-81
2022/11/12 03:38:24;;;;;;;5.83;4.30;;;3.50;99.90;;;;;;5108535;28;20226;-81
2022/11/12 03:40:51;;;;;;;6.97;4.60;;;3.40;99.90;;;;;;5100153;28;20634;-81
2022/11/12 03:43:17;;;;;;;6.07;4.83;;;3.50;99.90;;;;;;5094256;28;20569;-81
2022/11/12 03:45:44;;;;;;;7.93;4.97;;;3.40;99.90;;;;;;5093617;28;20209;-81
2022/11/12 03:48:12;;;;;;;8.27;4.80;;;3.30;99.90;;;;;;5107568;28;20228;-81
2022/11/12 03:50:39;;;;;;;7.47;5.50;;;3.30;99.90;;;;;;5099878;28;20220;-81
2022/11/12 03:53:06;;;;;;;6.93;4.77;;;3.40;99.90;;;;;;5105445;28;20579;-81
2022/11/12 03:55:33;;;;;;;6.10;4.33;;;3.40;99.90;;;;;;5097878;28;20238;-81
2022/11/12 03:58:00;;;;;;;6.23;4.60;;;3.50;99.90;;;;;;5083586;28;20218;-81
2022/11/12 04:00:28;;;;;;;8.20;4.67;;;3.30;99.90;;;;;;5107009;28;20197;-81
2022/11/12 04:02:56;;;;;;;6.07;4.40;;;3.20;99.90;;;;;;5108876;28;20567;-81
2022/11/12 04:10:58;;;;;;;7.97;4.97;;;3.40;99.90;;;;;;5106752;28;20277;-80
2022/11/12 04:13:27;;;;;;;7.00;4.27;;;3.60;99.90;;;;;;5109943;28;20575;-79
2022/11/12 04:26:21;;;;;;;5.73;4.40;;;3.50;99.90;;;;;;5093473;28;20208;-80
2022/11/12 04:27:00;;;;;;;6.07;4.60;;;3.30;99.90;;;;;;5102140;28;20220;-81
2022/11/12 04:32:11;;;;;;;7.83;5.03;;;3.40;99.90;;;;;;5110209;28;20200;-80
2022/11/12 04:34:38;;;;;;;8.03;5.17;;;3.40;99.90;;;;;;5101963;28;20204;-80
2022/11/12 04:37:06;;;;;;;9.53;5.10;;;3.50;99.90;;;;;;5094127;28;20213;-80
2022/11/12 04:39:33;;;;;;;6.43;5.13;;;3.60;99.90;;;;;;5102730;28;20193;-80
2022/11/12 04:45:00;;;;;;;7.50;5.13;;;3.80;99.90;;;;;;5091174;28;20200;-80
2022/11/12 04:47:29;;;;;;;7.93;5.27;;;4.00;99.90;;;;;;5084364;28;20648;-80
2022/11/12 04:49:56;;;;;;;8.57;5.67;;;4.10;99.90;;;;;;5100037;28;20214;-81
2022/11/12 04:52:24;;;;;;;7.80;5.40;;;4.20;99.90;;;;;;5104054;28;20200;-80
2022/11/12 04:54:52;;;;;;;6.90;4.60;;;4.20;99.90;;;;;;5096935;28;20621;-80
2022/11/12 04:57:19;;;;;;;5.63;4.63;;;4.10;99.90;;;;;;5103330;28;20228;-80
2022/11/12 04:59:46;;;;;;;6.17;5.10;;;3.90;99.90;;;;;;5096550;28;20193;-80
2022/11/12 05:02:13;;;;;;;7.03;4.83;;;3.40;99.90;;;;;;5095838;28;20660;-81
2022/11/12 05:04:40;;;;;;;6.20;5.20;;;3.00;99.90;;;;;;5102504;28;20201;-81
2022/11/12 05:07:07;;;;;;;7.57;5.10;;;2.90;99.90;;;;;;5099661;28;20704;-81
2022/11/12 05:09:35;;;;;;;10.17;5.23;;;2.90;99.90;;;;;;5106091;28;20225;-81
2022/11/12 05:12:02;;;;;;;8.03;4.73;;;3.10;99.90;;;;;;5106985;28;20215;-80
2022/11/12 05:14:29;;;;;;;7.87;4.90;;;3.20;99.90;;;;;;5072710;28;20845;-81
2022/11/12 05:16:55;;;;;;;8.50;4.90;;;3.30;99.90;;;;;;5095208;28;20228;-80
2022/11/12 05:19:22;;;;;;;7.97;5.13;;;3.50;99.90;;;;;;5110031;28;20208;-80
2022/11/12 05:22:07;;;;;;;6.30;4.63;;;3.50;99.90;;;;;;5094987;28;20588;-80
2022/11/12 05:24:38;;;;;;;7.40;5.03;;;3.50;99.90;;;;;;5094322;28;20586;-81
2022/11/12 05:27:07;;;;;;;8.03;5.37;;;3.20;99.90;;;;;;5096225;28;20230;-80
2022/11/12 05:29:34;;;;;;;7.17;4.97;;;3.00;99.90;;;;;;5107474;28;20226;-81
2022/11/12 05:32:01;;;;;;;5.10;4.20;;;3.20;99.90;;;;;;5100556;28;20197;-80
2022/11/12 05:34:28;;;;;;;7.73;4.53;;;3.10;99.90;;;;;;5102417;28;20193;-80
2022/11/12 05:36:55;;;;;;;5.97;4.40;;;2.80;99.90;;;;;;5098904;28;20707;-80
2022/11/12 05:39:21;;;;;;;8.33;5.40;;;3.00;99.90;;;;;;5094898;28;20208;-80
2022/11/12 05:41:50;;;;;;;8.33;5.10;;;3.30;99.90;;;;;;5099270;28;20654;-80
2022/11/12 05:44:17;;;;;;;8.03;5.50;;;3.20;99.90;;;;;;5100885;28;20209;-80
2022/11/12 05:46:44;;;;;;;6.27;5.13;;;3.10;99.90;;;;;;5089967;28;20213;-80
2022/11/12 05:49:11;;;;;;;6.60;5.33;;;3.20;99.90;;;;;;5095983;28;20204;-80
2022/11/12 05:51:38;;;;;;;7.60;5.13;;;3.30;99.90;;;;;;5098459;28;20201;-80
2022/11/12 05:54:05;;;;;;;7.80;4.67;;;3.30;99.90;;;;;;5101033;28;20190;-80
2022/11/12 05:56:32;;;;;;;7.70;5.20;;;3.20;99.90;;;;;;5090671;28;20196;-80
2022/11/12 05:59:01;;;;;;;8.93;5.17;;;3.30;99.90;;;;;;5105419;28;20198;-80
2022/11/12 06:01:28;;;;;;;6.43;4.77;;;3.10;99.90;;;;;;5093497;28;20189;-80
2022/11/12 06:03:55;;;;;;;6.83;4.77;;;3.10;99.90;;;;;;5101257;28;20209;-81
2022/11/12 06:06:22;;;;;;;7.87;5.30;;;3.20;99.90;;;;;;5095716;28;20554;-81
2022/11/12 06:08:49;;;;;;;8.00;4.87;;;3.30;99.90;;;;;;5100247;28;20198;-81
2022/11/12 06:11:16;;;;;;;8.10;5.27;;;2.90;99.90;;;;;;5089576;28;20354;-81
2022/11/12 06:13:43;;;;;;;7.40;4.97;;;2.80;99.90;;;;;;5104022;28;20198;-81
2022/11/12 06:16:11;;;;;;;6.80;5.10;;;3.00;99.90;;;;;;5096535;28;20208;-81
2022/11/12 06:18:39;;;;;;;8.60;5.33;;;2.90;99.90;;;;;;5100477;28;20223;-81
2022/11/12 06:21:22;;;;;;;6.17;4.70;;;3.00;99.90;;;;;;5101356;28;20205;-81
2022/11/12 06:23:54;;;;;;;6.97;4.90;;;3.10;99.90;;;;;;5092246;28;20204;-80
2022/11/12 06:26:21;;;;;;;6.90;4.70;;;3.30;99.90;;;;;;5087411;28;20220;-81
2022/11/12 06:28:49;;;;;;;6.80;4.60;;;3.20;99.90;;;;;;5089053;28;20202;-80
2022/11/12 06:31:18;;;;;;;6.97;4.63;;;3.30;99.90;;;;;;5098788;28;20229;-80
2022/11/12 06:33:45;;;;;;;8.83;5.60;;;3.30;99.90;;;;;;5087942;28;20203;-80
2022/11/12 06:36:14;;;;;;;8.63;5.30;;;3.30;99.90;;;;;;5085925;28;20216;-81
2022/11/12 06:38:42;;;;;;;8.33;5.20;;;3.50;99.90;;;;;;5100632;28;20203;-81
2022/11/12 06:41:10;;;;;;;6.10;4.50;;;3.40;99.90;;;;;;5109674;28;20990;-81
2022/11/12 06:43:38;;;;;;;7.93;4.77;;;3.20;99.90;;;;;;5103181;28;20275;-83
2022/11/12 06:46:06;;;;;;;6.93;5.47;;;3.20;99.90;;;;;;5091122;28;20202;-81
2022/11/12 06:48:34;;;;;;;7.80;5.17;;;3.40;99.90;;;;;;5103736;28;20217;-80
2022/11/12 06:51:07;;;;;;;7.00;4.87;;;3.50;99.90;;;;;;5107143;28;20224;-81
2022/11/12 06:53:34;;;;;;;6.93;5.20;;;3.50;99.90;;;;;;5100431;28;20642;-80
2022/11/12 06:56:05;;;;;;;9.77;5.43;;;3.60;99.90;;;;;;5098413;28;20566;-81
2022/11/12 06:58:32;;;;;;;8.37;5.70;;;3.60;99.90;;;;;;5101733;28;20233;-80
2022/11/12 07:01:05;;;;;;;9.70;5.60;;;3.80;99.90;;;;;;5101179;28;20201;-80
2022/11/12 07:03:31;;;;;;;7.53;5.20;;;4.00;99.90;;;;;;5094545;28;20182;-80
2022/11/12 07:06:04;;;;;;;9.33;5.90;;;4.10;99.90;;;;;;5098710;28;20567;-81
2022/11/12 07:08:30;;;;;;;8.83;5.40;;;4.20;99.90;;;;;;5099232;28;20763;-81
2022/11/12 07:10:57;;;;;;;7.53;5.30;;;4.20;99.90;;;;;;5099482;28;20581;-81
2022/11/12 07:13:24;;;;;;;6.83;5.20;;;4.10;99.90;;;;;;5095385;28;20610;-81
2022/11/12 07:15:51;;;;;;;8.87;5.70;;;3.70;99.90;;;;;;5094624;28;20209;-81
2022/11/12 07:18:18;;;;;;;7.17;5.00;;;3.80;99.90;;;;;;5102776;28;20217;-81
2022/11/12 07:20:45;;;;;;;9.17;5.40;;;4.00;99.90;;;;;;5114758;28;20568;-81
2022/11/12 07:23:13;;;;;;;7.83;5.37;;;4.10;99.90;;;;;;5083029;28;20202;-82
2022/11/12 07:25:40;;;;;;;8.43;5.43;;;4.10;99.90;;;;;;5105768;28;20214;-81
2022/11/12 07:28:06;;;;;;;9.03;5.80;;;4.30;99.90;;;;;;5105876;28;20229;-82
2022/11/12 07:30:33;;;;;;;8.80;5.20;;;4.50;99.90;;;;;;5101398;28;20584;-81
2022/11/12 07:33:00;;;;;;;9.00;5.73;;;4.60;99.90;;;;;;5091186;28;20198;-81
2022/11/12 07:35:27;;;;;;;9.13;5.33;;;4.70;99.90;;;;;;5090940;28;20201;-81
2022/11/12 07:37:53;;;;;;;9.13;5.73;;;4.80;99.90;;;;;;5103706;28;20592;-81
2022/11/12 07:40:22;;;;;;;9.37;5.73;;;4.90;99.90;;;;;;5098097;28;20649;-81
2022/11/12 07:42:48;;;;;;;10.13;5.60;;;5.00;99.90;;;;;;5102080;28;20205;-81
2022/11/12 07:45:15;;;;;;;7.17;4.73;;;5.00;99.90;;;;;;5097537;28;20215;-81
2022/11/12 07:47:42;;;;;;;7.50;5.47;;;5.00;99.90;;;;;;5099282;28;20689;-81
2022/11/12 07:50:10;;;;;;;8.67;5.20;;;4.90;99.90;;;;;;5104164;28;20685;-81
2022/11/12 07:52:36;;;;;;;7.13;4.87;;;4.90;99.90;;;;;;5114380;28;20197;-81
2022/11/12 07:55:04;;;;;;;8.93;5.80;;;5.10;99.90;;;;;;5105029;28;20197;-81
2022/11/12 07:57:33;;;;;;;7.70;5.67;;;5.10;99.90;;;;;;5109387;28;20221;-82
2022/11/12 08:00:00;;;;;;;9.97;5.30;;;5.20;99.90;;;;;;5097793;28;20220;-82
2022/11/12 08:02:27;;;;;;;8.70;5.70;;;5.40;99.90;;;;;;5102054;28;20202;-80
2022/11/12 08:04:54;;;;;;;7.87;5.03;;;5.40;99.90;;;;;;5097418;28;20197;-82
2022/11/12 08:07:20;;;;;;;6.80;5.07;;;5.60;99.90;;;;;;5102524;28;20221;-81
2022/11/12 08:09:47;;;;;;;7.73;5.80;;;5.80;99.90;;;;;;5094606;28;20200;-82
2022/11/12 08:12:14;;;;;;;7.33;5.43;;;6.00;99.90;;;;;;5103825;28;20217;-82
2022/11/12 08:14:42;;;;;;;9.20;5.63;;;6.00;99.90;;;;;;5107999;28;20209;-81
2022/11/12 08:17:09;;;;;;;8.37;5.10;;;6.20;99.90;;;;;;5113649;28;20586;-81
2022/11/12 08:19:36;;;;;;;7.80;5.17;;;6.50;99.90;;;;;;5115209;28;20205;-81
2022/11/12 08:22:03;;;;;;;7.80;5.03;;;6.50;99.90;;;;;;5103193;28;20196;-82
2022/11/12 08:24:30;;;;;;;8.93;5.23;;;6.60;99.90;;;;;;5106278;28;20373;-80
2022/11/12 08:26:57;;;;;;;10.90;5.87;;;6.80;99.90;;;;;;5101321;28;20574;-81
2022/11/12 08:29:24;;;;;;;9.57;5.20;;;7.00;99.90;;;;;;5102152;28;20588;-81
2022/11/12 08:31:52;;;;;;;12.73;6.20;;;7.20;99.90;;;;;;5102525;28;20286;-81
2022/11/12 08:34:19;;;;;;;8.40;5.90;;;7.30;99.90;;;;;;5105858;28;20204;-82
2022/11/12 08:36:46;;;;;;;8.97;5.03;;;7.50;99.90;;;;;;5100519;28;20227;-82
2022/11/12 08:39:13;;;;;;;9.13;5.30;;;7.60;99.90;;;;;;5102796;28;20205;-83
2022/11/12 08:41:39;;;;;;;9.20;5.20;;;7.60;99.90;;;;;;5117310;28;20189;-81
2022/11/12 08:44:06;;;;;;;7.13;4.97;;;8.10;99.90;;;;;;5088978;28;20213;-81
2022/11/12 08:46:33;;;;;;;8.73;5.20;;;8.10;99.90;;;;;;5110514;28;20269;-81
2022/11/12 08:49:02;;;;;;;9.17;5.10;;;8.10;99.90;;;;;;5095611;28;20720;-81
2022/11/12 08:51:28;;;;;;;6.90;4.97;;;8.20;99.90;;;;;;5102502;28;20222;-81
2022/11/12 08:53:55;;;;;;;6.07;4.53;;;8.20;99.90;;;;;;5105948;28;20205;-81
2022/11/12 08:56:22;;;;;;;6.20;4.40;;;8.30;99.90;;;;;;5101871;28;20573;-81
2022/11/12 08:58:49;;;;;;;13.57;5.80;;;8.70;99.90;;;;;;5101119;28;20573;-82
2022/11/12 09:01:16;;;;;;;7.70;5.43;;;9.10;99.90;;;;;;5105315;28;20885;-81
2022/11/12 09:03:43;;;;;;;8.67;5.30;;;9.40;99.90;;;;;;5091322;28;20202;-81
2022/11/12 09:06:11;;;;;;;10.73;5.57;;;9.80;99.90;;;;;;5107250;28;20551;-81
2022/11/12 09:08:38;;;;;;;8.50;5.53;;;10.00;99.90;;;;;;5101115;28;20693;-82
2022/11/12 09:11:06;;;;;;;9.00;5.50;;;10.30;99.90;;;;;;5099808;28;20210;-81
2022/11/12 09:13:33;;;;;;;17.20;10.33;;;10.00;99.90;;;;;;5096198;28;21018;-82
2022/11/12 09:16:02;;;;;;;11.57;5.73;;;9.90;99.90;;;;;;5093093;28;20198;-81
2022/11/12 09:18:30;;;;;;;7.40;5.30;;;10.00;99.90;;;;;;5087244;28;20217;-80
2022/11/12 09:21:01;;;;;;;9.70;5.00;;;10.10;99.90;;;;;;5088829;28;20200;-80
2022/11/12 09:23:30;;;;;;;9.00;5.43;;;10.30;99.90;;;;;;5082825;28;20229;-80
2022/11/12 09:25:57;;;;;;;9.03;5.90;;;10.40;99.90;;;;;;5090506;28;20217;-81
2022/11/12 09:28:25;;;;;;;9.90;4.97;;;10.50;99.90;;;;;;5092459;28;20221;-81
2022/11/12 09:30:53;;;;;;;9.00;5.47;;;10.90;99.90;;;;;;5088537;28;20221;-82
2022/11/12 09:33:22;;;;;;;11.00;5.23;;;11.10;99.90;;;;;;5089177;28;20194;-82
2022/11/12 09:35:50;;;;;;;8.47;4.87;;;11.10;99.90;;;;;;5078824;28;20228;-83
2022/11/12 09:38:18;;;;;;;9.83;5.40;;;11.10;99.90;;;;;;5086847;28;20225;-82
2022/11/12 09:41:13;;;;;;;6.90;5.03;;;11.20;99.90;;;;;;5088876;28;20194;-82
2022/11/12 09:43:45;;;;;;;6.23;4.73;;;11.30;99.90;;;;;;5088160;28;20213;-82
2022/11/12 09:46:29;;;;;;;8.43;5.70;;;11.30;99.90;;;;;;5096108;28;20198;-81
2022/11/12 09:49:04;;;;;;;7.57;5.47;;;11.40;99.90;;;;;;5087563;28;20205;-83
2022/11/12 09:51:33;;;;;;;9.60;5.47;;;11.40;99.90;;;;;;5093725;28;20217;-83
2022/11/12 09:54:05;;;;;;;8.77;5.37;;;11.50;99.90;;;;;;5085417;28;20208;-82
2022/11/12 09:56:34;;;;;;;9.50;5.23;;;11.40;99.90;;;;;;5088498;28;20215;-81
2022/11/12 09:59:00;;;;;;;9.03;5.07;;;11.30;99.90;;;;;;5094882;28;20198;-82
2022/11/12 10:01:40;;;;;;;7.23;5.07;;;11.40;99.90;;;;;;5089758;28;20198;-82
2022/11/12 10:04:24;;;;;;;6.43;4.67;;;11.50;99.90;;;;;;5094985;28;20209;-82
2022/11/12 10:07:01;;;;;;;6.27;5.03;;;11.60;99.90;;;;;;5096566;28;20221;-81
2022/11/12 10:09:35;;;;;;;5.43;4.80;;;11.80;99.90;;;;;;5089342;28;20268;-82
2022/11/12 10:12:33;;;;;;;8.57;5.37;;;11.70;99.90;;;;;;5082660;28;20700;-82
2022/11/12 10:18:16;;;;;;;7.37;5.43;;;11.50;99.90;;;;;;5082133;28;20593;-80
2022/11/12 10:20:49;;;;;;;9.30;5.30;;;11.50;99.90;;;;;;5095194;28;20566;-82
2022/11/12 10:23:20;;;;;;;8.07;5.00;;;11.50;99.90;;;;;;5098272;28;20301;-81
2022/11/12 10:25:51;;;;;;;8.27;5.63;;;11.40;99.90;;;;;;5090658;28;20210;-81
2022/11/12 10:28:26;;;;;;;7.73;5.37;;;11.30;99.90;;;;;;5104552;28;20222;-81
2022/11/12 10:30:57;;;;;;;9.73;5.40;;;11.20;99.90;;;;;;5105118;28;20285;-81
2022/11/12 10:33:23;;;;;;;7.27;5.37;;;11.40;99.90;;;;;;5100760;28;20193;-80
2022/11/12 10:35:52;;;;;;;8.17;5.63;;;11.50;99.90;;;;;;5104401;28;20201;-80
2022/11/12 10:38:26;;;;;;;8.77;5.80;;;11.60;99.90;;;;;;5096220;28;20756;-80
2022/11/12 10:40:54;;;;;;;9.23;5.57;;;11.50;99.90;;;;;;5090878;28;20193;-80
2022/11/12 10:43:24;;;;;;;8.80;6.07;;;11.70;99.90;;;;;;5100561;28;20216;-80
2022/11/12 10:45:51;;;;;;;8.30;5.47;;;11.90;99.90;;;;;;5087366;28;20729;-80
2022/11/12 10:48:23;;;;;;;7.80;5.63;;;12.00;99.90;;;;;;5104193;28;20225;-79
2022/11/12 10:50:50;;;;;;;8.70;5.27;;;12.00;99.90;;;;;;5093104;28;20208;-79
2022/11/12 10:53:32;;;;;;;7.60;5.27;;;12.00;99.90;;;;;;5098376;28;20213;-79
2022/11/12 10:56:00;;;;;;;8.57;5.80;;;12.10;99.90;;;;;;5097249;28;20206;-79
2022/11/12 10:58:29;;;;;;;10.70;5.60;;;12.10;99.90;;;;;;5096432;28;20220;-80
2022/11/12 11:01:02;;;;;;;6.43;4.77;;;12.20;99.90;;;;;;5100440;28;20204;-80
2022/11/12 11:03:33;;;;;;;8.83;5.97;;;12.10;99.90;;;;;;5092367;28;20236;-80
2022/11/12 11:06:02;;;;;;;11.10;5.57;;;12.10;99.90;;;;;;5097868;28;20310;-80
2022/11/12 11:08:40;;;;;;;16.13;5.57;;;12.20;99.90;;;;;;5086226;28;20221;-80
2022/11/12 11:11:26;;;;;;;8.07;5.50;;;12.20;99.90;;;;;;5103374;28;20213;-81
2022/11/12 11:13:56;;;;;;;7.53;5.20;;;12.20;99.90;;;;;;5087448;28;20549;-81
2022/11/12 11:16:25;;;;;;;8.73;5.40;;;12.20;99.90;;;;;;5097757;28;20663;-80
2022/11/12 11:18:56;;;;;;;8.77;5.40;;;12.20;99.90;;;;;;5100636;28;20200;-81
2022/11/12 11:21:40;;;;;;;8.77;6.10;;;12.30;99.90;;;;;;5095624;28;20551;-81
2022/11/12 11:24:30;;;;;;;8.00;6.30;;;12.30;99.90;;;;;;5091210;28;20217;-82
2022/11/12 11:27:03;;;;;;;10.67;6.03;;;12.30;99.90;;;;;;5074513;28;20234;-82
2022/11/12 11:29:52;;;;;;;8.57;5.73;;;12.40;99.90;;;;;;5103443;28;20199;-80
2022/11/12 11:32:43;;;;;;;8.73;5.50;;;12.50;99.90;;;;;;5088906;28;20219;-81
2022/11/12 11:35:20;;;;;;;7.90;5.47;;;12.60;99.90;;;;;;5103874;28;20204;-80
2022/11/12 11:37:57;;;;;;;6.30;5.30;;;12.60;99.90;;;;;;5099935;28;20224;-80
2022/11/12 11:40:29;;;;;;;11.10;6.17;;;12.70;99.90;;;;;;5101669;28;20193;-81
2022/11/12 11:43:23;;;;;;;9.27;5.77;;;12.70;99.90;;;;;;5084635;28;20568;-81
2022/11/12 11:46:06;;;;;;;7.63;4.87;;;12.80;99.90;;;;;;5100934;28;20209;-83
2022/11/12 11:48:49;;;;;;;10.10;5.93;;;12.80;99.90;;;;;;5091343;28;20299;-82
2022/11/12 11:51:39;;;;;;;11.40;6.30;;;12.90;99.90;;;;;;5089477;28;20217;-83
2022/11/12 11:54:19;;;;;;;7.97;5.97;;;12.80;99.90;;;;;;5093010;28;20220;-82
2022/11/12 11:56:51;;;;;;;9.13;6.33;;;12.90;99.90;;;;;;5096763;28;20229;-82
2022/11/12 11:59:32;;;;;;;9.50;6.23;;;12.90;99.90;;;;;;5097548;28;20202;-81
2022/11/12 12:02:22;;;;;;;10.77;6.20;;;12.80;99.90;;;;;;5096171;28;20212;-81
2022/11/12 12:04:51;;;;;;;8.43;5.87;;;12.80;99.90;;;;;;5095048;28;20698;-82
2022/11/12 12:07:30;;;;;;;10.67;6.17;;;12.80;99.90;;;;;;5091748;28;20264;-82
2022/11/12 12:10:05;;;;;;;9.73;5.90;;;12.90;99.90;;;;;;5090572;28;20714;-81
2022/11/12 12:12:46;;;;;;;7.87;5.77;;;12.90;99.90;;;;;;5094905;28;20210;-82
2022/11/12 12:15:35;;;;;;;7.87;5.30;;;12.90;99.90;;;;;;5095755;28;20233;-81
2022/11/12 12:18:12;;;;;;;7.93;5.50;;;12.80;99.90;;;;;;5086522;28;20232;-81
2022/11/12 12:20:48;;;;;;;7.87;4.43;;;12.80;99.90;;;;;;5087204;28;20218;-81
2022/11/12 12:23:23;;;;;;;6.50;4.80;;;12.90;99.90;;;;;;5094124;28;20202;-81
2022/11/12 12:25:52;;;;;;;6.87;4.40;;;13.00;99.90;;;;;;5097333;28;20613;-81
2022/11/12 12:28:29;;;;;;;8.23;5.00;;;13.10;99.90;;;;;;5082911;28;20221;-82
2022/11/12 12:31:01;;;;;;;6.67;5.17;;;13.00;99.90;;;;;;5088136;28;20194;-81
2022/11/12 12:33:35;;;;;;;7.30;5.07;;;13.10;99.90;;;;;;5081658;28;20220;-80
2022/11/12 12:36:05;;;;;;;7.37;5.00;;;13.00;99.90;;;;;;5092740;28;20193;-81
2022/11/12 12:38:38;;;;;;;4.77;4.13;;;13.00;99.90;;;;;;5098294;28;20213;-82
2022/11/12 12:41:14;;;;;;;7.87;5.17;;;13.20;99.90;;;;;;5085621;28;20669;-82
2022/11/12 12:43:46;;;;;;;5.50;4.47;;;13.10;99.90;;;;;;5093038;28;20215;-82
2022/11/12 12:46:16;;;;;;;7.63;4.57;;;12.90;99.90;;;;;;5090832;28;20201;-82
2022/11/12 12:48:47;;;;;;;7.57;4.80;;;12.90;99.90;;;;;;5097295;28;20729;-82
2022/11/12 12:51:14;;;;;;;8.37;4.80;;;12.90;99.90;;;;;;5100638;28;20227;-82
2022/11/12 12:53:40;;;;;;;7.57;4.53;;;12.90;99.90;;;;;;5092172;28;20639;-82
2022/11/12 12:56:45;;;;;;;6.03;4.50;;;12.90;99.90;;;;;;5088737;28;20210;-82
2022/11/12 12:59:21;;;;;;;4.97;4.43;;;13.00;99.90;;;;;;5097104;28;20256;-81
2022/11/12 13:01:56;;;;;;;5.07;4.20;;;13.20;99.90;;;;;;5083347;28;20210;-82
2022/11/12 13:04:51;;;;;;;7.83;4.80;;;13.20;99.90;;;;;;5110290;28;20251;-82
2022/11/12 13:07:19;;;;;;;5.93;4.07;;;13.50;99.90;;;;;;5075214;28;20233;-82
2022/11/12 13:09:46;;;;;;;6.23;4.50;;;13.50;99.90;;;;;;5087134;28;20581;-82
2022/11/12 13:12:22;;;;;;;5.37;3.90;;;13.70;99.90;;;;;;5100463;28;20223;-82
2022/11/12 13:15:14;;;;;;;7.63;4.10;;;13.70;99.90;;;;;;5095371;28;20197;-82
2022/11/12 13:17:49;;;;;;;7.43;4.33;;;13.70;99.90;;;;;;5078275;28;20229;-82
2022/11/12 13:20:34;;;;;;;6.30;4.37;;;13.60;99.90;;;;;;5089305;28;20205;-82
2022/11/12 13:23:01;;;;;;;6.83;4.30;;;13.40;99.90;;;;;;5096998;28;20253;-82
2022/11/12 13:25:30;;;;;;;5.70;4.07;;;13.20;99.90;;;;;;5088894;28;20244;-81
2022/11/12 13:28:13;;;;;;;5.17;3.80;;;13.20;99.90;;;;;;5085343;28;20228;-82
2022/11/12 13:30:59;;;;;;;3.30;3.00;;;13.10;99.90;;;;;;5092349;28;20204;-82
2022/11/12 13:33:33;;;;;;;6.53;3.60;;;13.00;99.90;;;;;;5097192;28;20221;-82